Portada
METAR-TAF:

METAR-TAF

Aeropuertos :

Eureka, Nunavut, Canadá

latitud: 79-59N, longitud: 085-56W, altitud: 10 m

Observación

El informe se hizo hace 1 hora y 15 minutos, a las 03:00 UTC
Viento 11 kt del sur-sureste con ráfagas de 18 kt
Temperatura 1°C
Humedad 64%
Presión 1019 hPa
Visibilidad: 24.1 km
Escasas nubes a una altura de 4500 ft
Nubes dispersas a una altura de 18000 ft

METAR: CWEU 030300Z 16011G18KT 15SM FEW045 SCT180 01/M05 A3010 RMK SC1AC2 LAST SFTD OBS/NEXT 0600Z SLP204

Hora: 23:15 (04:15 UTC)


TAF: falta

Observaciones y pronósticos meteorológicos de más de 4000 aeropuertos (mensajes METAR y TAF).

Los puntos amarillos y rojos representan las estaciones disponibles.

Ponga el ratón en el punto deseado para ver el nombre de la estación.

Haga clic para ver las observaciones y los pronósticos meteorológicos.

Para cambiar el mapa : haga clic en los botones verdes con una cruz de color negro para hacer un zoom, en el botón verde con un guión para alejar o en las flechas verdes para mapas adyacentes.


METAR-TAF: